sensor_id;sensor_type;location;lat;lon;timestamp;P1;durP1;ratioP1;P2;durP2;ratioP2
47725;SDS011;33483;48.294;16.388;2022-11-13T00:02:56;69.18;;;35.05;;
47725;SDS011;33483;48.294;16.388;2022-11-13T00:08:28;107.70;;;35.13;;
47725;SDS011;33483;48.294;16.388;2022-11-13T00:14:02;112.30;;;34.58;;
47725;SDS011;33483;48.294;16.388;2022-11-13T00:16:49;99.25;;;38.78;;
47725;SDS011;33483;48.294;16.388;2022-11-13T00:19:34;98.00;;;28.95;;
47725;SDS011;33483;48.294;16.388;2022-11-13T00:22:20;130.57;;;36.05;;
47725;SDS011;33483;48.294;16.388;2022-11-13T00:25:06;109.22;;;37.28;;
47725;SDS011;33483;48.294;16.388;2022-11-13T00:27:55;99.18;;;35.30;;
47725;SDS011;33483;48.294;16.388;2022-11-13T00:30:40;85.80;;;36.05;;
47725;SDS011;33483;48.294;16.388;2022-11-13T00:33:26;103.05;;;35.58;;
47725;SDS011;33483;48.294;16.388;2022-11-13T00:36:32;103.00;;;34.83;;
47725;SDS011;33483;48.294;16.388;2022-11-13T00:39:19;77.00;;;32.28;;
47725;SDS011;33483;48.294;16.388;2022-11-13T00:42:05;75.10;;;24.85;;
47725;SDS011;33483;48.294;16.388;2022-11-13T00:44:51;134.52;;;32.45;;
47725;SDS011;33483;48.294;16.388;2022-11-13T00:47:36;119.43;;;35.22;;
47725;SDS011;33483;48.294;16.388;2022-11-13T00:50:22;46.05;;;24.92;;
47725;SDS011;33483;48.294;16.388;2022-11-13T00:53:08;61.80;;;33.80;;
47725;SDS011;33483;48.294;16.388;2022-11-13T00:56:01;80.22;;;32.38;;
47725;SDS011;33483;48.294;16.388;2022-11-13T00:58:46;72.53;;;32.80;;
47725;SDS011;33483;48.294;16.388;2022-11-13T01:01:35;112.15;;;35.78;;
47725;SDS011;33483;48.294;16.388;2022-11-13T01:04:23;101.07;;;35.95;;
47725;SDS011;33483;48.294;16.388;2022-11-13T01:07:08;100.72;;;36.85;;
47725;SDS011;33483;48.294;16.388;2022-11-13T01:12:40;75.03;;;34.72;;
47725;SDS011;33483;48.294;16.388;2022-11-13T01:15:26;82.32;;;36.25;;
47725;SDS011;33483;48.294;16.388;2022-11-13T01:18:12;82.57;;;35.25;;
47725;SDS011;33483;48.294;16.388;2022-11-13T01:21:01;72.13;;;28.50;;
47725;SDS011;33483;48.294;16.388;2022-11-13T01:23:52;119.30;;;38.28;;
47725;SDS011;33483;48.294;16.388;2022-11-13T01:26:39;116.90;;;40.63;;
47725;SDS011;33483;48.294;16.388;2022-11-13T01:29:25;109.85;;;38.72;;
47725;SDS011;33483;48.294;16.388;2022-11-13T01:32:11;115.03;;;37.25;;
47725;SDS011;33483;48.294;16.388;2022-11-13T01:37:42;88.50;;;35.70;;
47725;SDS011;33483;48.294;16.388;2022-11-13T01:40:28;111.68;;;36.05;;
47725;SDS011;33483;48.294;16.388;2022-11-13T01:43:19;88.55;;;36.10;;
47725;SDS011;33483;48.294;16.388;2022-11-13T01:46:17;112.97;;;38.67;;
47725;SDS011;33483;48.294;16.388;2022-11-13T01:52:30;107.38;;;36.05;;
47725;SDS011;33483;48.294;16.388;2022-11-13T01:55:19;81.35;;;35.70;;
47725;SDS011;33483;48.294;16.388;2022-11-13T01:58:05;90.53;;;35.63;;
47725;SDS011;33483;48.294;16.388;2022-11-13T02:00:54;147.30;;;38.13;;
47725;SDS011;33483;48.294;16.388;2022-11-13T02:03:43;90.40;;;37.55;;
47725;SDS011;33483;48.294;16.388;2022-11-13T02:06:34;97.15;;;35.30;;
47725;SDS011;33483;48.294;16.388;2022-11-13T02:09:43;65.43;;;27.80;;
47725;SDS011;33483;48.294;16.388;2022-11-13T02:12:41;95.15;;;37.53;;
47725;SDS011;33483;48.294;16.388;2022-11-13T02:15:32;88.10;;;36.17;;
47725;SDS011;33483;48.294;16.388;2022-11-13T02:18:18;69.63;;;35.90;;
47725;SDS011;33483;48.294;16.388;2022-11-13T02:27:38;84.63;;;40.28;;
47725;SDS011;33483;48.294;16.388;2022-11-13T02:30:28;84.78;;;37.80;;
47725;SDS011;33483;48.294;16.388;2022-11-13T02:33:25;67.63;;;35.13;;
47725;SDS011;33483;48.294;16.388;2022-11-13T02:36:14;90.80;;;36.10;;
47725;SDS011;33483;48.294;16.388;2022-11-13T02:39:03;78.32;;;37.70;;
47725;SDS011;33483;48.294;16.388;2022-11-13T02:41:52;82.97;;;38.67;;
47725;SDS011;33483;48.294;16.388;2022-11-13T02:44:38;100.97;;;37.28;;
47725;SDS011;33483;48.294;16.388;2022-11-13T02:47:24;71.53;;;38.22;;
47725;SDS011;33483;48.294;16.388;2022-11-13T02:50:11;99.43;;;40.28;;
47725;SDS011;33483;48.294;16.388;2022-11-13T02:52:56;79.25;;;40.38;;
47725;SDS011;33483;48.294;16.388;2022-11-13T02:58:28;74.18;;;38.20;;
47725;SDS011;33483;48.294;16.388;2022-11-13T03:01:15;82.85;;;40.67;;
47725;SDS011;33483;48.294;16.388;2022-11-13T03:04:00;78.47;;;39.35;;
47725;SDS011;33483;48.294;16.388;2022-11-13T03:06:47;91.93;;;41.05;;
47725;SDS011;33483;48.294;16.388;2022-11-13T03:09:33;78.93;;;39.53;;
47725;SDS011;33483;48.294;16.388;2022-11-13T03:12:19;95.18;;;42.42;;
47725;SDS011;33483;48.294;16.388;2022-11-13T03:15:07;83.68;;;40.88;;
47725;SDS011;33483;48.294;16.388;2022-11-13T03:17:54;85.70;;;42.47;;
47725;SDS011;33483;48.294;16.388;2022-11-13T03:20:41;113.45;;;42.47;;
47725;SDS011;33483;48.294;16.388;2022-11-13T03:23:28;205.77;;;43.08;;
47725;SDS011;33483;48.294;16.388;2022-11-13T03:26:14;85.30;;;39.05;;
47725;SDS011;33483;48.294;16.388;2022-11-13T03:29:01;87.72;;;38.88;;
47725;SDS011;33483;48.294;16.388;2022-11-13T03:31:47;78.22;;;41.08;;
47725;SDS011;33483;48.294;16.388;2022-11-13T03:37:18;85.32;;;39.22;;
47725;SDS011;33483;48.294;16.388;2022-11-13T03:40:04;85.53;;;39.33;;
47725;SDS011;33483;48.294;16.388;2022-11-13T03:42:50;82.82;;;40.17;;
47725;SDS011;33483;48.294;16.388;2022-11-13T03:45:36;86.50;;;41.75;;
47725;SDS011;33483;48.294;16.388;2022-11-13T03:48:21;66.90;;;31.35;;
47725;SDS011;33483;48.294;16.388;2022-11-13T03:51:07;129.68;;;41.47;;
47725;SDS011;33483;48.294;16.388;2022-11-13T03:53:53;96.13;;;42.38;;
47725;SDS011;33483;48.294;16.388;2022-11-13T03:56:39;83.30;;;39.08;;
47725;SDS011;33483;48.294;16.388;2022-11-13T03:59:24;150.18;;;43.42;;
47725;SDS011;33483;48.294;16.388;2022-11-13T04:02:10;81.22;;;40.42;;
47725;SDS011;33483;48.294;16.388;2022-11-13T04:04:56;58.95;;;29.60;;
47725;SDS011;33483;48.294;16.388;2022-11-13T04:07:42;116.15;;;42.25;;
47725;SDS011;33483;48.294;16.388;2022-11-13T04:10:27;92.85;;;42.72;;
47725;SDS011;33483;48.294;16.388;2022-11-13T04:13:13;86.32;;;42.00;;
47725;SDS011;33483;48.294;16.388;2022-11-13T04:15:58;104.88;;;41.67;;
47725;SDS011;33483;48.294;16.388;2022-11-13T04:18:46;115.47;;;43.72;;
47725;SDS011;33483;48.294;16.388;2022-11-13T04:21:32;98.10;;;42.00;;
47725;SDS011;33483;48.294;16.388;2022-11-13T04:24:18;91.85;;;33.03;;
47725;SDS011;33483;48.294;16.388;2022-11-13T04:27:03;157.43;;;46.47;;
47725;SDS011;33483;48.294;16.388;2022-11-13T04:29:49;179.45;;;45.80;;
47725;SDS011;33483;48.294;16.388;2022-11-13T04:32:34;85.88;;;35.80;;
47725;SDS011;33483;48.294;16.388;2022-11-13T04:35:22;101.10;;;43.65;;
47725;SDS011;33483;48.294;16.388;2022-11-13T04:38:08;219.70;;;48.42;;
47725;SDS011;33483;48.294;16.388;2022-11-13T04:40:53;187.63;;;47.13;;
47725;SDS011;33483;48.294;16.388;2022-11-13T04:43:59;125.47;;;43.05;;
47725;SDS011;33483;48.294;16.388;2022-11-13T04:46:45;96.10;;;36.05;;
47725;SDS011;33483;48.294;16.388;2022-11-13T04:49:30;144.20;;;46.83;;
47725;SDS011;33483;48.294;16.388;2022-11-13T04:52:16;166.40;;;46.55;;
47725;SDS011;33483;48.294;16.388;2022-11-13T04:55:02;146.80;;;47.50;;
47725;SDS011;33483;48.294;16.388;2022-11-13T04:57:48;139.60;;;48.92;;
47725;SDS011;33483;48.294;16.388;2022-11-13T05:00:35;168.95;;;48.97;;
47725;SDS011;33483;48.294;16.388;2022-11-13T05:03:21;133.90;;;49.40;;
47725;SDS011;33483;48.294;16.388;2022-11-13T05:06:07;118.50;;;48.22;;
47725;SDS011;33483;48.294;16.388;2022-11-13T05:08:54;172.35;;;51.17;;
47725;SDS011;33483;48.294;16.388;2022-11-13T05:11:39;143.05;;;49.80;;
47725;SDS011;33483;48.294;16.388;2022-11-13T05:14:25;150.07;;;51.65;;
47725;SDS011;33483;48.294;16.388;2022-11-13T05:17:11;117.50;;;48.77;;
47725;SDS011;33483;48.294;16.388;2022-11-13T05:19:57;152.75;;;49.63;;
47725;SDS011;33483;48.294;16.388;2022-11-13T05:22:42;92.55;;;37.78;;
47725;SDS011;33483;48.294;16.388;2022-11-13T05:25:28;141.95;;;50.35;;
47725;SDS011;33483;48.294;16.388;2022-11-13T05:28:14;134.98;;;49.15;;
47725;SDS011;33483;48.294;16.388;2022-11-13T05:31:07;139.25;;;49.70;;
47725;SDS011;33483;48.294;16.388;2022-11-13T05:33:58;185.20;;;50.35;;
47725;SDS011;33483;48.294;16.388;2022-11-13T05:36:50;149.70;;;51.83;;
47725;SDS011;33483;48.294;16.388;2022-11-13T05:39:36;118.03;;;50.60;;
47725;SDS011;33483;48.294;16.388;2022-11-13T05:42:21;121.45;;;47.83;;
47725;SDS011;33483;48.294;16.388;2022-11-13T05:45:07;166.73;;;51.92;;
47725;SDS011;33483;48.294;16.388;2022-11-13T05:47:53;105.50;;;48.28;;
47725;SDS011;33483;48.294;16.388;2022-11-13T05:50:39;156.65;;;47.20;;
47725;SDS011;33483;48.294;16.388;2022-11-13T05:53:24;101.07;;;36.80;;
47725;SDS011;33483;48.294;16.388;2022-11-13T05:59:01;91.38;;;44.42;;
47725;SDS011;33483;48.294;16.388;2022-11-13T06:01:47;114.88;;;46.97;;
47725;SDS011;33483;48.294;16.388;2022-11-13T06:04:34;113.78;;;48.67;;
47725;SDS011;33483;48.294;16.388;2022-11-13T06:07:19;157.68;;;48.85;;
47725;SDS011;33483;48.294;16.388;2022-11-13T06:12:53;144.77;;;47.85;;
47725;SDS011;33483;48.294;16.388;2022-11-13T06:15:39;129.75;;;47.92;;
47725;SDS011;33483;48.294;16.388;2022-11-13T06:18:25;79.15;;;36.22;;
47725;SDS011;33483;48.294;16.388;2022-11-13T06:21:15;135.02;;;45.80;;
47725;SDS011;33483;48.294;16.388;2022-11-13T06:24:03;121.22;;;46.92;;
47725;SDS011;33483;48.294;16.388;2022-11-13T06:26:49;138.73;;;49.67;;
47725;SDS011;33483;48.294;16.388;2022-11-13T06:29:35;109.07;;;46.72;;
47725;SDS011;33483;48.294;16.388;2022-11-13T06:32:20;134.18;;;48.67;;
47725;SDS011;33483;48.294;16.388;2022-11-13T06:35:06;100.05;;;37.92;;
47725;SDS011;33483;48.294;16.388;2022-11-13T06:37:55;118.10;;;47.67;;
47725;SDS011;33483;48.294;16.388;2022-11-13T06:40:41;150.48;;;49.30;;
47725;SDS011;33483;48.294;16.388;2022-11-13T06:43:27;105.35;;;50.17;;
47725;SDS011;33483;48.294;16.388;2022-11-13T06:49:01;119.85;;;46.50;;
47725;SDS011;33483;48.294;16.388;2022-11-13T06:51:46;135.13;;;49.80;;
47725;SDS011;33483;48.294;16.388;2022-11-13T06:57:18;115.22;;;51.03;;
47725;SDS011;33483;48.294;16.388;2022-11-13T07:00:04;114.55;;;51.88;;
47725;SDS011;33483;48.294;16.388;2022-11-13T07:02:50;141.88;;;52.65;;
47725;SDS011;33483;48.294;16.388;2022-11-13T07:05:36;139.75;;;51.30;;
47725;SDS011;33483;48.294;16.388;2022-11-13T07:08:22;84.70;;;39.05;;
47725;SDS011;33483;48.294;16.388;2022-11-13T07:11:18;111.95;;;48.78;;
47725;SDS011;33483;48.294;16.388;2022-11-13T07:14:08;123.63;;;50.90;;
47725;SDS011;33483;48.294;16.388;2022-11-13T07:16:56;106.03;;;50.05;;
47725;SDS011;33483;48.294;16.388;2022-11-13T07:19:54;113.40;;;47.58;;
47725;SDS011;33483;48.294;16.388;2022-11-13T07:22:40;102.25;;;45.83;;
47725;SDS011;33483;48.294;16.388;2022-11-13T07:25:28;117.30;;;48.72;;
47725;SDS011;33483;48.294;16.388;2022-11-13T07:28:15;101.00;;;47.40;;
47725;SDS011;33483;48.294;16.388;2022-11-13T07:31:00;102.47;;;46.92;;
47725;SDS011;33483;48.294;16.388;2022-11-13T07:33:47;98.38;;;47.70;;
47725;SDS011;33483;48.294;16.388;2022-11-13T07:36:33;102.38;;;46.53;;
47725;SDS011;33483;48.294;16.388;2022-11-13T07:39:19;103.40;;;47.25;;
47725;SDS011;33483;48.294;16.388;2022-11-13T07:42:05;104.07;;;46.75;;
47725;SDS011;33483;48.294;16.388;2022-11-13T07:44:51;112.05;;;47.42;;
47725;SDS011;33483;48.294;16.388;2022-11-13T07:47:39;112.15;;;46.38;;
47725;SDS011;33483;48.294;16.388;2022-11-13T07:50:31;104.22;;;47.05;;
47725;SDS011;33483;48.294;16.388;2022-11-13T07:53:18;98.72;;;46.28;;
47725;SDS011;33483;48.294;16.388;2022-11-13T07:56:05;97.13;;;45.70;;
47725;SDS011;33483;48.294;16.388;2022-11-13T07:58:51;93.70;;;44.03;;
47725;SDS011;33483;48.294;16.388;2022-11-13T08:01:39;83.65;;;42.22;;
47725;SDS011;33483;48.294;16.388;2022-11-13T08:04:25;80.35;;;40.95;;
47725;SDS011;33483;48.294;16.388;2022-11-13T08:07:11;77.55;;;38.78;;
47725;SDS011;33483;48.294;16.388;2022-11-13T08:09:59;74.18;;;40.15;;
47725;SDS011;33483;48.294;16.388;2022-11-13T08:12:45;77.20;;;40.03;;
47725;SDS011;33483;48.294;16.388;2022-11-13T08:15:31;72.10;;;39.05;;
47725;SDS011;33483;48.294;16.388;2022-11-13T08:18:18;67.35;;;37.10;;
47725;SDS011;33483;48.294;16.388;2022-11-13T08:21:03;69.13;;;37.97;;
47725;SDS011;33483;48.294;16.388;2022-11-13T08:23:58;69.10;;;36.40;;
47725;SDS011;33483;48.294;16.388;2022-11-13T08:26:43;73.30;;;38.75;;
47725;SDS011;33483;48.294;16.388;2022-11-13T08:29:29;67.57;;;37.78;;
47725;SDS011;33483;48.294;16.388;2022-11-13T08:32:15;77.17;;;38.33;;
47725;SDS011;33483;48.294;16.388;2022-11-13T08:35:01;71.75;;;38.25;;
47725;SDS011;33483;48.294;16.388;2022-11-13T08:37:47;69.97;;;37.60;;
47725;SDS011;33483;48.294;16.388;2022-11-13T08:40:34;68.05;;;36.05;;
47725;SDS011;33483;48.294;16.388;2022-11-13T08:43:20;63.72;;;35.45;;
47725;SDS011;33483;48.294;16.388;2022-11-13T08:46:06;59.92;;;33.38;;
47725;SDS011;33483;48.294;16.388;2022-11-13T08:48:51;63.88;;;33.83;;
47725;SDS011;33483;48.294;16.388;2022-11-13T08:51:38;54.15;;;30.42;;
47725;SDS011;33483;48.294;16.388;2022-11-13T08:54:24;50.90;;;29.55;;
47725;SDS011;33483;48.294;16.388;2022-11-13T08:59:55;59.42;;;30.63;;
47725;SDS011;33483;48.294;16.388;2022-11-13T09:02:41;55.55;;;31.30;;
47725;SDS011;33483;48.294;16.388;2022-11-13T09:05:27;55.50;;;32.13;;
47725;SDS011;33483;48.294;16.388;2022-11-13T09:08:13;48.38;;;30.33;;
47725;SDS011;33483;48.294;16.388;2022-11-13T09:11:02;45.75;;;25.85;;
47725;SDS011;33483;48.294;16.388;2022-11-13T09:13:49;61.05;;;31.13;;
47725;SDS011;33483;48.294;16.388;2022-11-13T09:16:38;57.67;;;33.28;;
47725;SDS011;33483;48.294;16.388;2022-11-13T09:19:24;60.33;;;34.97;;
47725;SDS011;33483;48.294;16.388;2022-11-13T09:24:56;59.25;;;32.15;;
47725;SDS011;33483;48.294;16.388;2022-11-13T09:27:41;58.22;;;34.28;;
47725;SDS011;33483;48.294;16.388;2022-11-13T09:30:28;65.13;;;34.92;;
47725;SDS011;33483;48.294;16.388;2022-11-13T09:33:14;55.63;;;32.13;;
47725;SDS011;33483;48.294;16.388;2022-11-13T09:36:00;58.53;;;34.05;;
47725;SDS011;33483;48.294;16.388;2022-11-13T09:38:46;57.10;;;32.42;;
47725;SDS011;33483;48.294;16.388;2022-11-13T09:41:39;59.00;;;33.35;;
47725;SDS011;33483;48.294;16.388;2022-11-13T09:44:32;54.60;;;34.25;;
47725;SDS011;33483;48.294;16.388;2022-11-13T09:47:27;60.15;;;33.80;;
47725;SDS011;33483;48.294;16.388;2022-11-13T09:50:18;53.45;;;33.97;;
47725;SDS011;33483;48.294;16.388;2022-11-13T09:53:10;56.83;;;33.13;;
47725;SDS011;33483;48.294;16.388;2022-11-13T10:14:35;55.95;;;32.80;;
47725;SDS011;33483;48.294;16.388;2022-11-13T10:20:45;53.92;;;33.13;;
47725;SDS011;33483;48.294;16.388;2022-11-13T10:23:34;51.50;;;31.83;;
47725;SDS011;33483;48.294;16.388;2022-11-13T10:26:23;48.97;;;30.88;;
47725;SDS011;33483;48.294;16.388;2022-11-13T10:31:59;45.60;;;29.40;;
47725;SDS011;33483;48.294;16.388;2022-11-13T10:41:15;43.92;;;27.73;;
47725;SDS011;33483;48.294;16.388;2022-11-13T10:44:06;43.65;;;27.23;;
47725;SDS011;33483;48.294;16.388;2022-11-13T10:47:16;40.40;;;27.27;;
47725;SDS011;33483;48.294;16.388;2022-11-13T10:50:24;45.25;;;29.60;;
47725;SDS011;33483;48.294;16.388;2022-11-13T10:53:14;37.90;;;25.65;;
47725;SDS011;33483;48.294;16.388;2022-11-13T10:56:10;41.38;;;25.13;;
47725;SDS011;33483;48.294;16.388;2022-11-13T10:59:17;38.65;;;25.63;;
47725;SDS011;33483;48.294;16.388;2022-11-13T11:05:21;35.63;;;24.38;;
47725;SDS011;33483;48.294;16.388;2022-11-13T11:08:08;35.40;;;23.95;;
47725;SDS011;33483;48.294;16.388;2022-11-13T11:10:59;37.10;;;24.23;;
47725;SDS011;33483;48.294;16.388;2022-11-13T11:14:33;35.97;;;24.05;;
47725;SDS011;33483;48.294;16.388;2022-11-13T11:17:32;38.88;;;24.75;;
47725;SDS011;33483;48.294;16.388;2022-11-13T11:23:45;35.53;;;23.15;;
47725;SDS011;33483;48.294;16.388;2022-11-13T11:26:42;36.25;;;23.40;;
47725;SDS011;33483;48.294;16.388;2022-11-13T11:29:40;35.30;;;23.20;;
47725;SDS011;33483;48.294;16.388;2022-11-13T11:35:51;32.88;;;22.13;;
47725;SDS011;33483;48.294;16.388;2022-11-13T11:41:37;35.67;;;22.42;;
47725;SDS011;33483;48.294;16.388;2022-11-13T11:44:30;33.67;;;21.55;;
47725;SDS011;33483;48.294;16.388;2022-11-13T11:47:25;29.38;;;20.90;;
47725;SDS011;33483;48.294;16.388;2022-11-13T11:50:12;31.15;;;21.23;;
47725;SDS011;33483;48.294;16.388;2022-11-13T12:00:07;28.27;;;19.23;;
47725;SDS011;33483;48.294;16.388;2022-11-13T12:05:44;31.58;;;19.63;;
47725;SDS011;33483;48.294;16.388;2022-11-13T12:11:29;27.38;;;19.27;;
47725;SDS011;33483;48.294;16.388;2022-11-13T12:23:48;29.75;;;19.90;;
47725;SDS011;33483;48.294;16.388;2022-11-13T12:27:03;32.53;;;21.10;;
47725;SDS011;33483;48.294;16.388;2022-11-13T12:30:18;30.80;;;20.33;;
47725;SDS011;33483;48.294;16.388;2022-11-13T12:36:44;29.05;;;19.33;;
47725;SDS011;33483;48.294;16.388;2022-11-13T12:48:26;29.80;;;18.45;;
47725;SDS011;33483;48.294;16.388;2022-11-13T12:51:17;30.45;;;18.85;;
47725;SDS011;33483;48.294;16.388;2022-11-13T12:54:08;27.35;;;19.08;;
47725;SDS011;33483;48.294;16.388;2022-11-13T12:57:16;31.20;;;19.92;;
47725;SDS011;33483;48.294;16.388;2022-11-13T13:00:10;33.58;;;20.23;;
47725;SDS011;33483;48.294;16.388;2022-11-13T13:06:02;32.75;;;20.95;;
47725;SDS011;33483;48.294;16.388;2022-11-13T13:21:18;34.08;;;22.02;;
47725;SDS011;33483;48.294;16.388;2022-11-13T13:24:06;34.60;;;21.95;;
47725;SDS011;33483;48.294;16.388;2022-11-13T13:26:57;36.30;;;22.60;;
47725;SDS011;33483;48.294;16.388;2022-11-13T13:29:44;32.90;;;22.42;;
47725;SDS011;33483;48.294;16.388;2022-11-13T13:32:35;32.63;;;21.85;;
47725;SDS011;33483;48.294;16.388;2022-11-13T13:39:25;39.92;;;24.67;;
47725;SDS011;33483;48.294;16.388;2022-11-13T13:42:27;39.47;;;25.77;;
47725;SDS011;33483;48.294;16.388;2022-11-13T13:45:49;43.25;;;26.35;;
47725;SDS011;33483;48.294;16.388;2022-11-13T13:48:55;42.60;;;25.90;;
47725;SDS011;33483;48.294;16.388;2022-11-13T13:51:47;47.92;;;27.67;;
47725;SDS011;33483;48.294;16.388;2022-11-13T13:54:35;42.83;;;27.42;;
47725;SDS011;33483;48.294;16.388;2022-11-13T13:57:25;46.85;;;27.60;;
47725;SDS011;33483;48.294;16.388;2022-11-13T14:00:12;45.33;;;28.67;;
47725;SDS011;33483;48.294;16.388;2022-11-13T14:03:00;50.70;;;30.75;;
47725;SDS011;33483;48.294;16.388;2022-11-13T14:05:47;50.92;;;30.02;;
47725;SDS011;33483;48.294;16.388;2022-11-13T14:08:32;50.25;;;31.33;;
47725;SDS011;33483;48.294;16.388;2022-11-13T14:14:18;52.00;;;30.88;;
47725;SDS011;33483;48.294;16.388;2022-11-13T14:17:07;50.70;;;29.58;;
47725;SDS011;33483;48.294;16.388;2022-11-13T14:19:54;50.78;;;30.63;;
47725;SDS011;33483;48.294;16.388;2022-11-13T14:22:47;56.50;;;33.33;;
47725;SDS011;33483;48.294;16.388;2022-11-13T14:25:41;48.22;;;30.85;;
47725;SDS011;33483;48.294;16.388;2022-11-13T14:28:28;51.95;;;31.70;;
47725;SDS011;33483;48.294;16.388;2022-11-13T14:31:16;53.20;;;32.95;;
47725;SDS011;33483;48.294;16.388;2022-11-13T14:34:13;51.78;;;31.27;;
47725;SDS011;33483;48.294;16.388;2022-11-13T14:40:17;56.92;;;33.45;;
47725;SDS011;33483;48.294;16.388;2022-11-13T14:43:05;51.92;;;32.20;;
47725;SDS011;33483;48.294;16.388;2022-11-13T14:45:54;61.70;;;34.97;;
47725;SDS011;33483;48.294;16.388;2022-11-13T14:48:53;58.90;;;36.10;;
47725;SDS011;33483;48.294;16.388;2022-11-13T14:51:39;59.30;;;36.45;;
47725;SDS011;33483;48.294;16.388;2022-11-13T14:54:29;54.38;;;34.75;;
47725;SDS011;33483;48.294;16.388;2022-11-13T14:57:45;59.63;;;36.08;;
47725;SDS011;33483;48.294;16.388;2022-11-13T15:00:37;62.50;;;36.88;;
47725;SDS011;33483;48.294;16.388;2022-11-13T15:03:24;64.72;;;38.55;;
47725;SDS011;33483;48.294;16.388;2022-11-13T15:06:24;60.38;;;35.13;;
47725;SDS011;33483;48.294;16.388;2022-11-13T15:09:21;63.95;;;37.58;;
47725;SDS011;33483;48.294;16.388;2022-11-13T15:12:11;62.90;;;38.00;;
47725;SDS011;33483;48.294;16.388;2022-11-13T15:14:58;70.13;;;38.72;;
47725;SDS011;33483;48.294;16.388;2022-11-13T15:17:44;68.25;;;39.15;;
47725;SDS011;33483;48.294;16.388;2022-11-13T15:20:32;64.20;;;37.13;;
47725;SDS011;33483;48.294;16.388;2022-11-13T15:26:09;61.33;;;36.33;;
47725;SDS011;33483;48.294;16.388;2022-11-13T15:28:56;64.45;;;37.83;;
47725;SDS011;33483;48.294;16.388;2022-11-13T15:31:43;70.20;;;38.72;;
47725;SDS011;33483;48.294;16.388;2022-11-13T15:34:38;59.83;;;36.00;;
47725;SDS011;33483;48.294;16.388;2022-11-13T15:37:25;66.70;;;39.28;;
47725;SDS011;33483;48.294;16.388;2022-11-13T15:40:11;65.97;;;37.53;;
47725;SDS011;33483;48.294;16.388;2022-11-13T15:42:59;61.97;;;36.70;;
47725;SDS011;33483;48.294;16.388;2022-11-13T15:45:46;63.25;;;37.35;;
47725;SDS011;33483;48.294;16.388;2022-11-13T15:48:32;61.65;;;36.83;;
47725;SDS011;33483;48.294;16.388;2022-11-13T15:57:23;67.35;;;37.72;;
47725;SDS011;33483;48.294;16.388;2022-11-13T16:03:02;68.60;;;38.60;;
47725;SDS011;33483;48.294;16.388;2022-11-13T16:05:59;68.93;;;39.20;;
47725;SDS011;33483;48.294;16.388;2022-11-13T16:08:46;65.40;;;37.47;;
47725;SDS011;33483;48.294;16.388;2022-11-13T16:11:33;75.40;;;41.45;;
47725;SDS011;33483;48.294;16.388;2022-11-13T16:14:19;76.32;;;43.60;;
47725;SDS011;33483;48.294;16.388;2022-11-13T16:17:13;72.97;;;40.58;;
47725;SDS011;33483;48.294;16.388;2022-11-13T16:20:05;65.25;;;37.58;;
47725;SDS011;33483;48.294;16.388;2022-11-13T16:22:55;98.07;;;45.15;;
47725;SDS011;33483;48.294;16.388;2022-11-13T16:25:42;86.45;;;45.80;;
47725;SDS011;33483;48.294;16.388;2022-11-13T16:28:32;115.22;;;54.80;;
47725;SDS011;33483;48.294;16.388;2022-11-13T16:31:37;77.18;;;44.13;;
47725;SDS011;33483;48.294;16.388;2022-11-13T16:34:26;70.43;;;40.22;;
47725;SDS011;33483;48.294;16.388;2022-11-13T16:43:11;72.97;;;41.08;;
47725;SDS011;33483;48.294;16.388;2022-11-13T16:45:59;69.80;;;40.33;;
47725;SDS011;33483;48.294;16.388;2022-11-13T16:48:59;75.93;;;40.67;;
47725;SDS011;33483;48.294;16.388;2022-11-13T16:51:45;74.40;;;39.88;;
47725;SDS011;33483;48.294;16.388;2022-11-13T16:54:32;74.55;;;40.22;;
47725;SDS011;33483;48.294;16.388;2022-11-13T16:57:22;74.88;;;40.83;;
47725;SDS011;33483;48.294;16.388;2022-11-13T17:00:11;76.40;;;41.05;;
47725;SDS011;33483;48.294;16.388;2022-11-13T17:03:00;78.10;;;42.05;;
47725;SDS011;33483;48.294;16.388;2022-11-13T17:05:50;76.65;;;41.70;;
47725;SDS011;33483;48.294;16.388;2022-11-13T17:08:38;80.88;;;44.50;;
47725;SDS011;33483;48.294;16.388;2022-11-13T17:11:24;76.93;;;41.25;;
47725;SDS011;33483;48.294;16.388;2022-11-13T17:14:15;81.30;;;43.55;;
47725;SDS011;33483;48.294;16.388;2022-11-13T17:17:05;73.93;;;41.22;;
47725;SDS011;33483;48.294;16.388;2022-11-13T17:19:55;77.80;;;42.80;;
47725;SDS011;33483;48.294;16.388;2022-11-13T17:22:42;80.45;;;41.88;;
47725;SDS011;33483;48.294;16.388;2022-11-13T17:25:33;78.55;;;43.33;;
47725;SDS011;33483;48.294;16.388;2022-11-13T17:28:21;79.50;;;42.85;;
47725;SDS011;33483;48.294;16.388;2022-11-13T17:31:08;83.15;;;44.58;;
47725;SDS011;33483;48.294;16.388;2022-11-13T17:33:57;78.03;;;43.67;;
47725;SDS011;33483;48.294;16.388;2022-11-13T17:36:44;80.22;;;41.60;;
47725;SDS011;33483;48.294;16.388;2022-11-13T17:39:33;78.07;;;42.78;;
47725;SDS011;33483;48.294;16.388;2022-11-13T17:42:25;78.60;;;42.90;;
47725;SDS011;33483;48.294;16.388;2022-11-13T17:45:18;76.38;;;42.65;;
47725;SDS011;33483;48.294;16.388;2022-11-13T17:48:05;81.57;;;45.60;;
47725;SDS011;33483;48.294;16.388;2022-11-13T17:50:55;83.13;;;42.90;;
47725;SDS011;33483;48.294;16.388;2022-11-13T17:53:43;76.63;;;42.42;;
47725;SDS011;33483;48.294;16.388;2022-11-13T17:56:30;80.85;;;42.65;;
47725;SDS011;33483;48.294;16.388;2022-11-13T17:59:17;86.18;;;44.33;;
47725;SDS011;33483;48.294;16.388;2022-11-13T18:02:07;80.15;;;42.55;;
47725;SDS011;33483;48.294;16.388;2022-11-13T18:04:56;77.60;;;41.03;;
47725;SDS011;33483;48.294;16.388;2022-11-13T18:07:45;76.25;;;41.03;;
47725;SDS011;33483;48.294;16.388;2022-11-13T18:10:32;84.15;;;44.22;;
47725;SDS011;33483;48.294;16.388;2022-11-13T18:13:19;90.90;;;46.55;;
47725;SDS011;33483;48.294;16.388;2022-11-13T18:16:12;85.82;;;44.50;;
47725;SDS011;33483;48.294;16.388;2022-11-13T18:19:00;88.05;;;46.53;;
47725;SDS011;33483;48.294;16.388;2022-11-13T18:21:49;84.65;;;43.90;;
47725;SDS011;33483;48.294;16.388;2022-11-13T18:24:37;78.22;;;41.13;;
47725;SDS011;33483;48.294;16.388;2022-11-13T18:27:28;83.03;;;41.92;;
47725;SDS011;33483;48.294;16.388;2022-11-13T18:30:18;74.38;;;40.67;;
47725;SDS011;33483;48.294;16.388;2022-11-13T18:33:05;74.32;;;40.83;;
47725;SDS011;33483;48.294;16.388;2022-11-13T18:35:54;75.28;;;40.63;;
47725;SDS011;33483;48.294;16.388;2022-11-13T18:38:42;80.72;;;42.58;;
47725;SDS011;33483;48.294;16.388;2022-11-13T18:41:30;82.43;;;42.80;;
47725;SDS011;33483;48.294;16.388;2022-11-13T18:44:18;80.95;;;42.85;;
47725;SDS011;33483;48.294;16.388;2022-11-13T18:47:04;86.82;;;42.80;;
47725;SDS011;33483;48.294;16.388;2022-11-13T18:49:53;84.50;;;43.17;;
47725;SDS011;33483;48.294;16.388;2022-11-13T18:52:39;84.43;;;42.55;;
47725;SDS011;33483;48.294;16.388;2022-11-13T18:55:26;79.95;;;40.55;;
47725;SDS011;33483;48.294;16.388;2022-11-13T18:58:13;86.00;;;44.03;;